Melrose, Minnesota
Current Conditions -  °F | °C
As of 4:33 PM on Tuesday 21 Oct 2014 (Local Time) from KD39 Reporting Station
Clear Clear  
Wind Chill: 15°   Ceiling: Unl
Heat Index: 15°   Visibility: 10mi
Dew Point:   Wind: 16mph
Humidity: 51%   Direction: 120°ESE
Pressure: 30.07"   Gusts: 23mph
Location:  45.67°N, 94.81°W
Report Text: KD39 212133Z AUTO 12014G20KT 10SM CLR 15/05 A3007 RMK AO2 T01460045
Loading
Personal Weather Stations






























Interactive Weather Map
Tropical Storm Tracking
New forecast layout! Learn more

10-Day Weather Forecast

Advertisements
Track Severe Weather on mobile